createdAt,value
2017-04-12T00:00:33.539Z,90.64
2017-04-12T00:01:33.517Z,90.45
2017-04-12T00:02:33.498Z,90.55
2017-04-12T00:03:33.479Z,90.64
2017-04-12T00:04:33.459Z,90.45
2017-04-12T00:05:33.437Z,90.45
2017-04-12T00:06:33.419Z,90.07
2017-04-12T00:07:33.397Z,89.98
2017-04-12T00:08:33.376Z,89.88
2017-04-12T00:09:33.357Z,90.36
2017-04-12T00:10:33.340Z,90.17
2017-04-12T00:11:33.315Z,90.17
2017-04-12T00:12:33.294Z,90.26
2017-04-12T00:13:33.276Z,90.36
2017-04-12T00:14:33.257Z,90.45
2017-04-12T00:15:33.239Z,90.17
2017-04-12T00:16:33.219Z,90.55
2017-04-12T00:17:33.195Z,90.36
2017-04-12T00:18:33.176Z,90.45
2017-04-12T00:19:33.155Z,90.5
2017-04-12T00:20:33.137Z,90.4
2017-04-12T00:21:33.117Z,90.5
2017-04-12T00:22:33.099Z,90.5
2017-04-12T00:23:33.075Z,90.4
2017-04-12T00:24:33.058Z,90.55
2017-04-12T00:25:33.035Z,90.5
2017-04-12T00:26:33.015Z,90.68
2017-04-12T00:27:32.996Z,90.87
2017-04-12T00:28:32.675Z,91.02
2017-04-12T00:29:32.959Z,90.92
2017-04-12T00:30:32.938Z,91.39
2017-04-12T00:31:32.917Z,91.35
2017-04-12T00:32:32.897Z,91.16
2017-04-12T00:33:32.880Z,91.35
2017-04-12T00:34:32.859Z,91.44
2017-04-12T00:35:32.836Z,91.53
2017-04-12T00:36:32.818Z,91.91
2017-04-12T00:37:32.796Z,91.91
2017-04-12T00:38:32.782Z,92
2017-04-12T00:39:32.754Z,91.91
2017-04-12T00:40:32.739Z,91.91
2017-04-12T00:41:32.716Z,91.63
2017-04-12T00:42:32.696Z,92.29
2017-04-12T00:43:32.679Z,92.38
2017-04-12T00:44:32.659Z,92
2017-04-12T00:45:32.641Z,92.29
2017-04-12T00:46:32.616Z,92.66
2017-04-12T00:47:32.599Z,92.95
2017-04-12T00:48:32.580Z,92.66
2017-04-12T00:49:32.561Z,92.85
2017-04-12T00:50:32.541Z,92.95
2017-04-12T00:51:32.522Z,92.95
2017-04-12T00:52:32.499Z,93.23
2017-04-12T00:53:32.480Z,93.8
2017-04-12T00:54:32.462Z,93.99
2017-04-12T00:55:32.442Z,94.18
2017-04-12T00:56:32.421Z,94.27
2017-04-12T00:57:32.402Z,94.65
2017-04-12T00:58:32.384Z,94.93
2017-04-12T00:59:32.362Z,94.65
2017-04-12T01:00:32.340Z,94.84
2017-04-12T01:01:32.321Z,95.03
2017-04-12T01:02:32.306Z,95.5
2017-04-12T01:03:32.282Z,95.59
2017-04-12T01:04:32.266Z,95.78
2017-04-12T01:05:32.242Z,95.87
2017-04-12T01:06:32.227Z,96.06
2017-04-12T01:07:32.206Z,96.53
2017-04-12T01:08:32.188Z,96.63
2017-04-12T01:09:32.167Z,96.63
2017-04-12T01:10:31.844Z,96.91
2017-04-12T01:11:32.127Z,97.1
2017-04-12T01:12:32.109Z,97.38
2017-04-12T01:13:32.089Z,97.48
2017-04-12T01:14:32.068Z,97.85
2017-04-12T01:15:32.048Z,97.85
2017-04-12T01:16:32.028Z,98.04
2017-04-12T01:17:32.009Z,97.95
2017-04-12T01:18:31.987Z,98.33
2017-04-12T01:19:31.970Z,98.23
2017-04-12T01:20:31.951Z,98.8
2017-04-12T01:21:31.932Z,98.61
2017-04-12T01:22:31.911Z,98.42
2017-04-12T01:23:31.892Z,99.18
2017-04-12T01:24:31.869Z,99.46
2017-04-12T01:25:31.849Z,99.55
2017-04-12T01:26:31.833Z,99.65
2017-04-12T01:27:31.810Z,99.99
2017-04-12T01:28:31.794Z,99.93
2017-04-12T01:29:31.771Z,99.99
2017-04-12T01:30:31.755Z,99.99
2017-04-12T01:31:31.732Z,99.99
2017-04-12T01:32:31.714Z,99.99
2017-04-12T01:33:31.696Z,99.99
2017-04-12T01:34:31.671Z,99.99
2017-04-12T01:35:31.656Z,99.99
2017-04-12T01:36:31.634Z,99.99
2017-04-12T01:37:31.618Z,99.99
2017-04-12T01:38:31.595Z,99.99
2017-04-12T01:39:31.276Z,99.99
2017-04-12T01:40:31.556Z,99.99
2017-04-12T01:41:31.539Z,99.99
2017-04-12T01:42:31.214Z,99.99
2017-04-12T01:43:31.496Z,99.99
2017-04-12T01:44:31.177Z,99.99
2017-04-12T01:45:31.459Z,99.99
2017-04-12T01:46:31.437Z,99.99
2017-04-12T01:47:31.420Z,99.99
2017-04-12T01:48:31.400Z,99.99
2017-04-12T01:49:31.386Z,99.99
2017-04-12T01:50:31.373Z,99.99
2017-04-12T01:51:31.342Z,99.99
2017-04-12T01:52:31.327Z,99.99
2017-04-12T01:53:31.306Z,99.99
2017-04-12T01:54:31.286Z,99.99
2017-04-12T01:55:31.269Z,99.99
2017-04-12T01:56:31.250Z,99.99
2017-04-12T01:57:31.225Z,99.99
2017-04-12T01:58:31.207Z,99.99
2017-04-12T01:59:31.186Z,99.99
2017-04-12T02:00:31.174Z,99.99
2017-04-12T02:01:31.151Z,99.99
2017-04-12T02:02:31.129Z,99.99
2017-04-12T02:03:31.326Z,99.99
2017-04-12T02:04:31.099Z,99.99
2017-04-12T02:05:31.073Z,99.99
2017-04-12T02:06:31.055Z,99.99
2017-04-12T02:07:31.033Z,99.99
2017-04-12T02:08:31.011Z,99.99
2017-04-12T02:09:30.998Z,99.99
2017-04-12T02:10:30.974Z,99.99
2017-04-12T02:11:30.955Z,99.99
2017-04-12T02:12:31.136Z,99.99
2017-04-12T02:13:30.916Z,99.99
2017-04-12T02:14:30.898Z,99.99
2017-04-12T02:15:30.875Z,99.99
2017-04-12T02:16:30.860Z,99.99
2017-04-12T02:17:30.840Z,99.99
2017-04-12T02:18:30.819Z,99.99
2017-04-12T02:19:30.802Z,99.99
2017-04-12T02:20:30.781Z,99.99
2017-04-12T02:21:30.764Z,99.99
2017-04-12T02:22:30.741Z,99.99
2017-04-12T02:23:30.723Z,99.99
2017-04-12T02:24:30.705Z,99.99
2017-04-12T02:25:30.685Z,99.99
2017-04-12T02:26:30.707Z,99.99
2017-04-12T02:27:30.646Z,99.99
2017-04-12T02:28:30.626Z,99.99
2017-04-12T02:29:30.607Z,99.99
2017-04-12T02:30:30.587Z,99.99
2017-04-12T02:31:30.565Z,99.99
2017-04-12T02:32:30.550Z,99.99
2017-04-12T02:33:30.530Z,99.99
2017-04-12T02:34:30.513Z,99.99
2017-04-12T02:35:30.493Z,99.99
2017-04-12T02:36:30.471Z,99.99
2017-04-12T02:37:30.670Z,99.99
2017-04-12T02:38:30.437Z,99.99
2017-04-12T02:39:30.417Z,99.99
2017-04-12T02:40:30.392Z,99.99
2017-04-12T02:41:30.579Z,99.99
2017-04-12T02:42:30.358Z,99.99
2017-04-12T02:43:30.341Z,99.99
2017-04-12T02:44:30.316Z,99.99
2017-04-12T02:45:30.297Z,99.99
2017-04-12T02:46:30.480Z,99.99
2017-04-12T02:47:30.260Z,99.99
2017-04-12T02:48:30.241Z,99.99
2017-04-12T02:49:30.219Z,99.99
2017-04-12T02:50:30.202Z,99.99
2017-04-12T02:51:30.188Z,99.99
2017-04-12T02:52:30.165Z,99.99
2017-04-12T02:53:29.841Z,99.99
2017-04-12T02:54:30.126Z,99.99
2017-04-12T02:55:30.106Z,99.99
2017-04-12T02:56:30.091Z,99.99
2017-04-12T02:57:30.062Z,99.99
2017-04-12T02:58:30.044Z,99.99
2017-04-12T02:59:30.025Z,99.99
2017-04-12T03:00:30.007Z,99.99
2017-04-12T03:01:29.989Z,99.99
2017-04-12T03:02:29.970Z,99.99
2017-04-12T03:03:29.950Z,99.99
2017-04-12T03:04:29.931Z,99.99
2017-04-12T03:05:29.913Z,99.99
2017-04-12T03:06:29.893Z,99.99
2017-04-12T03:07:29.873Z,99.99
2017-04-12T03:08:29.860Z,99.99
2017-04-12T03:09:29.836Z,99.99
2017-04-12T03:10:29.813Z,99.99
2017-04-12T03:11:30.013Z,99.99
2017-04-12T03:12:29.776Z,99.99
2017-04-12T03:13:29.759Z,99.99
2017-04-12T03:14:29.739Z,99.99
2017-04-12T03:15:29.720Z,99.99
2017-04-12T03:16:29.703Z,99.99
2017-04-12T03:17:29.681Z,99.99
2017-04-12T03:18:29.661Z,99.99
2017-04-12T03:19:29.643Z,99.99
2017-04-12T03:20:29.829Z,99.99
2017-04-12T03:21:29.605Z,99.99
2017-04-12T03:22:29.587Z,99.99
2017-04-12T03:23:29.567Z,99.99
2017-04-12T03:24:29.546Z,99.99
2017-04-12T03:25:29.531Z,99.99
2017-04-12T03:26:29.215Z,99.99
2017-04-12T03:27:29.495Z,99.99
2017-04-12T03:28:29.472Z,99.99
2017-04-12T03:29:29.453Z,99.99
2017-04-12T03:30:29.431Z,99.99
2017-04-12T03:31:29.414Z,99.99
2017-04-12T03:32:29.398Z,99.99
2017-04-12T03:33:29.375Z,99.99
2017-04-12T03:34:29.357Z,99.99
2017-04-12T03:35:29.337Z,99.99
2017-04-12T03:36:29.320Z,99.99
2017-04-12T03:37:29.300Z,99.99
2017-04-12T03:38:29.281Z,99.99
2017-04-12T03:39:29.263Z,99.99
2017-04-12T03:40:29.247Z,99.99
2017-04-12T03:41:29.222Z,99.99
2017-04-12T03:42:29.205Z,99.99
2017-04-12T03:43:29.188Z,99.99
2017-04-12T03:44:29.167Z,99.99
2017-04-12T03:45:29.356Z,99.99
2017-04-12T03:46:29.126Z,99.99
2017-04-12T03:47:28.812Z,99.99
2017-04-12T03:48:29.093Z,99.99
2017-04-12T03:49:29.070Z,99.99
2017-04-12T03:50:29.052Z,99.99
2017-04-12T03:51:29.040Z,99.99
2017-04-12T03:52:29.015Z,99.99
2017-04-12T03:53:28.996Z,99.99
2017-04-12T03:54:29.180Z,99.99
2017-04-12T03:55:28.959Z,99.99
2017-04-12T03:56:28.938Z,99.99
2017-04-12T03:57:28.916Z,99.99
2017-04-12T03:58:28.901Z,99.99
2017-04-12T03:59:28.881Z,99.99
2017-04-12T04:00:28.860Z,99.99
2017-04-12T04:01:28.843Z,99.99
2017-04-12T04:02:28.828Z,99.99
2017-04-12T04:03:28.807Z,99.99
2017-04-12T04:04:28.793Z,99.99
2017-04-12T04:05:28.770Z,99.99
2017-04-12T04:06:28.747Z,99.99
2017-04-12T04:07:28.729Z,99.99
2017-04-12T04:08:28.717Z,99.99
2017-04-12T04:09:28.694Z,99.99
2017-04-12T04:10:28.676Z,99.99
2017-04-12T04:11:28.656Z,99.99
2017-04-12T04:12:28.635Z,99.99
2017-04-12T04:13:28.619Z,99.99
2017-04-12T04:14:28.599Z,99.99
2017-04-12T04:15:28.582Z,99.99
2017-04-12T04:16:28.565Z,99.99
2017-04-12T04:17:28.540Z,99.99
2017-04-12T04:18:28.524Z,99.99
2017-04-12T04:19:28.506Z,99.99
2017-04-12T04:20:28.489Z,99.99
2017-04-12T04:21:28.472Z,99.99
2017-04-12T04:22:28.452Z,99.99
2017-04-12T04:23:28.434Z,99.99
2017-04-12T04:24:28.411Z,99.99
2017-04-12T04:25:28.400Z,99.99
2017-04-12T04:26:28.375Z,99.99
2017-04-12T04:27:28.357Z,99.99
2017-04-12T04:28:28.339Z,99.99
2017-04-12T04:29:28.321Z,99.99
2017-04-12T04:30:28.302Z,99.99
2017-04-12T04:31:28.284Z,99.99
2017-04-12T04:32:28.262Z,99.99
2017-04-12T04:33:28.251Z,99.99
2017-04-12T04:34:28.226Z,99.99
2017-04-12T04:35:28.210Z,99.99
2017-04-12T04:36:28.192Z,99.99
2017-04-12T04:37:28.172Z,99.99
2017-04-12T04:38:28.154Z,99.99
2017-04-12T04:39:28.134Z,99.99
2017-04-12T04:40:28.118Z,99.99
2017-04-12T04:41:28.102Z,99.99
2017-04-12T04:42:28.080Z,99.99
2017-04-12T04:43:28.064Z,99.99
2017-04-12T04:44:28.047Z,99.99
2017-04-12T04:45:28.027Z,99.99
2017-04-12T04:46:28.007Z,99.99
2017-04-12T04:47:27.991Z,99.99
2017-04-12T04:48:27.975Z,99.99
2017-04-12T04:49:27.956Z,99.99
2017-04-12T04:50:27.933Z,99.99
2017-04-12T04:51:27.918Z,99.99
2017-04-12T04:52:27.900Z,99.99
2017-04-12T04:53:27.881Z,99.99
2017-04-12T04:54:27.861Z,99.99
2017-04-12T04:55:27.846Z,99.99
2017-04-12T04:56:27.826Z,99.99
2017-04-12T04:57:27.805Z,99.99
2017-04-12T04:58:27.789Z,99.99
2017-04-12T04:59:27.771Z,99.99
2017-04-12T05:00:27.755Z,99.99
2017-04-12T05:01:27.740Z,99.99
2017-04-12T05:02:27.716Z,99.99
2017-04-12T05:03:27.698Z,99.99
2017-04-12T05:04:27.690Z,99.99
2017-04-12T05:05:27.663Z,99.99
2017-04-12T05:06:27.643Z,99.99
2017-04-12T05:07:27.628Z,99.99
2017-04-12T05:08:27.608Z,99.99
2017-04-12T05:09:27.589Z,99.99
2017-04-12T05:10:27.573Z,99.99
2017-04-12T05:11:27.555Z,99.99
2017-04-12T05:12:27.539Z,99.99
2017-04-12T05:13:27.522Z,99.99
2017-04-12T05:14:27.506Z,99.99
2017-04-12T05:15:27.492Z,99.99
2017-04-12T05:16:27.467Z,99.99
2017-04-12T05:17:27.447Z,99.99
2017-04-12T05:18:27.430Z,99.99
2017-04-12T05:19:27.410Z,99.99
2017-04-12T05:20:27.397Z,99.99
2017-04-12T05:21:27.379Z,99.99
2017-04-12T05:22:27.363Z,99.99
2017-04-12T05:23:27.341Z,99.99
2017-04-12T05:24:27.326Z,99.99
2017-04-12T05:25:27.312Z,99.99
2017-04-12T05:26:27.291Z,99.99
2017-04-12T05:27:27.274Z,99.99
2017-04-12T05:28:27.255Z,99.99
2017-04-12T05:29:27.235Z,99.99
2017-04-12T05:30:27.219Z,99.99
2017-04-12T05:31:27.199Z,99.99
2017-04-12T05:32:27.184Z,99.99
2017-04-12T05:33:27.164Z,99.99
2017-04-12T05:34:27.147Z,99.99
2017-04-12T05:35:27.132Z,99.99
2017-04-12T05:36:27.109Z,99.99
2017-04-12T05:37:27.093Z,99.99
2017-04-12T05:38:27.074Z,99.99
2017-04-12T05:39:27.057Z,99.99
2017-04-12T05:40:27.041Z,99.99
2017-04-12T05:41:27.021Z,99.99
2017-04-12T05:42:27.003Z,99.99
2017-04-12T05:43:26.983Z,99.99
2017-04-12T05:44:26.969Z,99.99
2017-04-12T05:45:26.950Z,99.99
2017-04-12T05:46:26.933Z,99.99
2017-04-12T05:47:26.914Z,99.99
2017-04-12T05:48:26.898Z,99.99
2017-04-12T05:49:26.884Z,99.99
2017-04-12T05:50:26.861Z,99.99
2017-04-12T05:51:26.844Z,99.99
2017-04-12T05:52:26.827Z,99.99
2017-04-12T05:53:26.505Z,99.99
2017-04-12T05:54:26.792Z,99.99
2017-04-12T05:55:26.772Z,99.99
2017-04-12T05:56:26.754Z,99.99
2017-04-12T05:57:26.738Z,99.99
2017-04-12T05:58:26.720Z,99.99
2017-04-12T05:59:26.700Z,99.99
2017-04-12T06:00:26.686Z,99.99
2017-04-12T06:01:26.666Z,99.99
2017-04-12T06:02:26.645Z,99.99
2017-04-12T06:03:26.628Z,99.99
2017-04-12T06:04:26.612Z,99.99
2017-04-12T06:05:26.605Z,99.99
2017-04-12T06:06:26.587Z,99.99
2017-04-12T06:07:26.558Z,99.99
2017-04-12T06:08:26.544Z,99.99
2017-04-12T06:09:26.527Z,99.99
2017-04-12T06:10:26.506Z,99.99
2017-04-12T06:11:26.492Z,99.99
2017-04-12T06:12:26.472Z,99.99
2017-04-12T06:13:26.457Z,99.99
2017-04-12T06:14:26.438Z,99.99
2017-04-12T06:15:26.422Z,99.99
2017-04-12T06:16:26.403Z,99.99
2017-04-12T06:17:26.391Z,99.99
2017-04-12T06:18:26.371Z,99.99
2017-04-12T06:19:26.357Z,99.99
2017-04-12T06:20:26.337Z,99.99
2017-04-12T06:21:26.320Z,99.99
2017-04-12T06:22:26.299Z,99.99
2017-04-12T06:23:26.285Z,99.99
2017-04-12T06:24:26.270Z,99.99
2017-04-12T06:25:26.251Z,99.99
2017-04-12T06:26:26.237Z,99.99
2017-04-12T06:27:26.219Z,99.99
2017-04-12T06:28:26.205Z,99.99
2017-04-12T06:29:26.184Z,99.99
2017-04-12T06:30:26.172Z,99.99
2017-04-12T06:31:26.153Z,99.99
2017-04-12T06:32:26.134Z,99.99
2017-04-12T06:33:26.123Z,99.99
2017-04-12T06:34:26.104Z,99.99
2017-04-12T06:35:25.788Z,99.99
2017-04-12T06:36:25.771Z,99.99
2017-04-12T06:37:26.056Z,99.99
2017-04-12T06:38:25.740Z,99.99
2017-04-12T06:39:26.024Z,99.99
2017-04-12T06:40:26.010Z,99.99
2017-04-12T06:41:25.992Z,99.99
2017-04-12T06:42:25.975Z,99.99
2017-04-12T06:43:25.968Z,99.99
2017-04-12T06:44:25.954Z,99.99
2017-04-12T06:45:25.934Z,99.99
2017-04-12T06:46:25.924Z,99.99
2017-04-12T06:47:25.900Z,99.99
2017-04-12T06:48:25.882Z,99.99
2017-04-12T06:49:25.867Z,99.99
2017-04-12T06:50:25.849Z,99.99
2017-04-12T06:51:25.830Z,99.99
2017-04-12T06:52:25.816Z,99.99
2017-04-12T06:53:25.800Z,99.99
2017-04-12T06:54:25.782Z,99.99
2017-04-12T06:55:25.770Z,99.99
2017-04-12T06:56:25.752Z,99.99
2017-04-12T06:57:25.783Z,99.99
2017-04-12T06:58:25.721Z,99.99
2017-04-12T06:59:25.709Z,99.99
2017-04-12T07:00:25.693Z,99.99
2017-04-12T07:01:25.673Z,99.99
2017-04-12T07:02:25.660Z,99.99
2017-04-12T07:03:25.645Z,99.99
2017-04-12T07:04:25.327Z,99.99
2017-04-12T07:05:25.615Z,99.99
2017-04-12T07:06:25.595Z,99.99
2017-04-12T07:07:25.579Z,99.99
2017-04-12T07:08:25.565Z,99.99
2017-04-12T07:09:25.543Z,99.99
2017-04-12T07:10:25.533Z,99.99
2017-04-12T07:11:25.212Z,99.99
2017-04-12T07:12:25.501Z,99.99
2017-04-12T07:13:25.486Z,99.99
2017-04-12T07:14:25.468Z,99.99
2017-04-12T07:15:25.456Z,99.99
2017-04-12T07:16:25.436Z,99.99
2017-04-12T07:17:25.416Z,99.99
2017-04-12T07:18:25.402Z,99.99
2017-04-12T07:19:25.087Z,99.99
2017-04-12T07:20:25.373Z,99.99
2017-04-12T07:21:25.356Z,99.99
2017-04-12T07:22:25.041Z,99.99
2017-04-12T07:23:25.322Z,99.99
2017-04-12T07:24:25.345Z,99.99
2017-04-12T07:25:25.294Z,99.99
2017-04-12T07:26:25.280Z,99.99
2017-04-12T07:27:25.264Z,99.99
2017-04-12T07:28:25.249Z,99.99
2017-04-12T07:29:25.233Z,99.99
2017-04-12T07:30:25.222Z,99.99
2017-04-12T07:31:25.206Z,99.99
2017-04-12T07:32:25.187Z,99.99
2017-04-12T07:33:25.172Z,99.99
2017-04-12T07:34:25.163Z,99.99
2017-04-12T07:35:25.147Z,99.99
2017-04-12T07:36:25.133Z,99.99
2017-04-12T07:37:25.117Z,99.99
2017-04-12T07:38:25.105Z,99.99
2017-04-12T07:39:25.089Z,99.99
2017-04-12T07:40:25.075Z,99.99
2017-04-12T07:41:25.065Z,99.99
2017-04-12T07:42:25.048Z,99.99
2017-04-12T07:43:25.033Z,99.99
2017-04-12T07:44:24.721Z,99.99
2017-04-12T07:45:24.705Z,99.99
2017-04-12T07:46:24.994Z,99.99
2017-04-12T07:47:24.680Z,99.99
2017-04-12T07:48:24.665Z,99.99
2017-04-12T07:49:24.950Z,99.99
2017-04-12T07:50:24.942Z,99.99
2017-04-12T07:51:24.621Z,99.99
2017-04-12T07:52:24.609Z,99.99
2017-04-12T07:53:24.894Z,99.99
2017-04-12T07:54:24.881Z,99.99
2017-04-12T07:55:24.867Z,99.99
2017-04-12T07:56:24.857Z,99.99
2017-04-12T07:57:24.535Z,99.99
2017-04-12T07:58:24.855Z,99.99
2017-04-12T07:59:24.809Z,99.99
2017-04-12T08:00:24.792Z,99.99
2017-04-12T08:01:24.776Z,99.99
2017-04-12T08:02:24.766Z,99.99
2017-04-12T08:03:24.450Z,99.99
2017-04-12T08:04:24.742Z,99.99
2017-04-12T08:05:24.721Z,99.99
2017-04-12T08:06:24.706Z,99.99
2017-04-12T08:07:24.688Z,99.99
2017-04-12T08:08:24.677Z,99.99
2017-04-12T08:09:24.660Z,99.99
2017-04-12T08:10:24.647Z,99.99
2017-04-12T08:11:24.631Z,99.99
2017-04-12T08:12:24.628Z,99.99
2017-04-12T08:13:24.605Z,99.99
2017-04-12T08:14:24.590Z,99.99
2017-04-12T08:15:24.576Z,99.99
2017-04-12T08:16:24.558Z,99.99
2017-04-12T08:17:24.547Z,99.99
2017-04-12T08:18:24.534Z,99.99
2017-04-12T08:19:24.517Z,99.99
2017-04-12T08:20:24.505Z,99.99
2017-04-12T08:21:24.530Z,99.99
2017-04-12T08:22:24.475Z,99.99
2017-04-12T08:23:24.463Z,99.99
2017-04-12T08:24:24.143Z,99.99
2017-04-12T08:25:24.431Z,99.99
2017-04-12T08:26:24.420Z,99.99
2017-04-12T08:27:24.406Z,99.99
2017-04-12T08:28:24.391Z,99.99
2017-04-12T08:29:24.073Z,99.99
2017-04-12T08:30:24.367Z,99.99
2017-04-12T08:31:24.349Z,99.99
2017-04-12T08:32:24.335Z,99.99
2017-04-12T08:33:24.318Z,99.99
2017-04-12T08:34:24.307Z,99.99
2017-04-12T08:35:24.288Z,99.99
2017-04-12T08:36:24.275Z,99.99
2017-04-12T08:37:24.259Z,99.99
2017-04-12T08:38:24.249Z,99.99
2017-04-12T08:39:23.931Z,99.99
2017-04-12T08:40:24.260Z,99.99
2017-04-12T08:41:24.208Z,99.99
2017-04-12T08:42:24.192Z,99.99
2017-04-12T08:43:24.179Z,99.99
2017-04-12T08:44:24.161Z,99.99
2017-04-12T08:45:24.151Z,99.99
2017-04-12T08:46:24.135Z,99.99
2017-04-12T08:47:24.130Z,99.99
2017-04-12T08:48:24.107Z,99.99
2017-04-12T08:49:24.096Z,99.99
2017-04-12T08:50:24.080Z,99.99
2017-04-12T08:51:24.066Z,99.99
2017-04-12T08:52:24.055Z,99.99
2017-04-12T08:53:24.039Z,99.99
2017-04-12T08:54:24.029Z,99.99
2017-04-12T08:55:24.013Z,99.81
2017-04-12T08:56:24.000Z,99.99
2017-04-12T08:57:23.686Z,99.76
2017-04-12T08:58:23.970Z,99.99
2017-04-12T08:59:23.962Z,99.99
2017-04-12T09:00:23.945Z,99.85
2017-04-12T09:01:23.934Z,99.99
2017-04-12T09:02:23.915Z,99.99
2017-04-12T09:03:23.599Z,99.99
2017-04-12T09:04:23.891Z,99.99
2017-04-12T09:05:23.876Z,99.99
2017-04-12T09:06:23.861Z,99.99
2017-04-12T09:07:23.845Z,99.99
2017-04-12T09:08:23.829Z,99.99
2017-04-12T09:09:23.814Z,99.99
2017-04-12T09:10:23.804Z,99.99
2017-04-12T09:11:23.488Z,99.67
2017-04-12T09:12:23.474Z,99.43
2017-04-12T09:13:23.763Z,99.33
2017-04-12T09:14:23.748Z,99.71
2017-04-12T09:15:23.734Z,99.48
2017-04-12T09:16:23.727Z,98.44
2017-04-12T09:17:23.707Z,99.1
2017-04-12T09:18:23.688Z,99.62
2017-04-12T09:19:23.676Z,99.29
2017-04-12T09:20:23.663Z,99.52
2017-04-12T09:21:23.650Z,99.29
2017-04-12T09:22:23.630Z,99.1
2017-04-12T09:23:23.617Z,99.57
2017-04-12T09:24:23.599Z,99.66
2017-04-12T09:25:23.587Z,99.52
2017-04-12T09:26:23.573Z,99.58
2017-04-12T09:27:23.557Z,99.58
2017-04-12T09:28:23.550Z,99.1
2017-04-12T09:29:23.527Z,99.67
2017-04-12T09:30:23.515Z,98.63
2017-04-12T09:31:23.198Z,98.68
2017-04-12T09:32:23.492Z,98.82
2017-04-12T09:33:23.474Z,98.82
2017-04-12T09:34:23.462Z,98.63
2017-04-12T09:35:23.143Z,98.72
2017-04-12T09:36:23.430Z,98.91
2017-04-12T09:37:23.419Z,99.06
2017-04-12T09:38:23.402Z,98.58
2017-04-12T09:39:23.386Z,98.58
2017-04-12T09:40:23.373Z,98.77
2017-04-12T09:41:23.061Z,98.35
2017-04-12T09:42:23.347Z,98.44
2017-04-12T09:43:23.333Z,98.44
2017-04-12T09:44:23.017Z,98.58
2017-04-12T09:45:23.302Z,98.3
2017-04-12T09:46:23.292Z,98.63
2017-04-12T09:47:23.275Z,98.72
2017-04-12T09:48:22.960Z,98.82
2017-04-12T09:49:23.251Z,98.82
2017-04-12T09:50:23.236Z,98.87
2017-04-12T09:51:23.221Z,97.92
2017-04-12T09:52:23.207Z,98.06
2017-04-12T09:53:23.195Z,98.06
2017-04-12T09:54:23.181Z,98.16
2017-04-12T09:55:23.168Z,98.16
2017-04-12T09:56:22.853Z,97.78
2017-04-12T09:57:23.141Z,98.06
2017-04-12T09:58:22.823Z,98.11
2017-04-12T09:59:22.812Z,98.16
2017-04-12T10:00:23.098Z,97.68
2017-04-12T10:01:23.090Z,97.44
2017-04-12T10:02:23.071Z,98.01
2017-04-12T10:03:23.059Z,98.11
2017-04-12T10:04:22.739Z,98.06
2017-04-12T10:05:22.729Z,97.97
2017-04-12T10:06:23.018Z,98.35
2017-04-12T10:07:23.001Z,97.78
2017-04-12T10:08:22.989Z,97.35
2017-04-12T10:09:22.974Z,98.2
2017-04-12T10:10:22.961Z,97.63
2017-04-12T10:11:22.946Z,97.82
2017-04-12T10:12:22.932Z,97.25
2017-04-12T10:13:22.919Z,97.3
2017-04-12T10:14:22.904Z,97.25
2017-04-12T10:15:22.887Z,97.3
2017-04-12T10:16:22.876Z,97.49
2017-04-12T10:17:22.863Z,97.63
2017-04-12T10:18:22.844Z,97.44
2017-04-12T10:19:22.863Z,97.34
2017-04-12T10:20:22.817Z,97.53
2017-04-12T10:21:22.800Z,97.72
2017-04-12T10:22:22.826Z,97.91
2017-04-12T10:23:22.774Z,98.44
2017-04-12T10:24:22.754Z,98.53
2017-04-12T10:25:22.738Z,98.58
2017-04-12T10:26:22.725Z,98.49
2017-04-12T10:27:22.710Z,98.68
2017-04-12T10:28:22.698Z,98.68
2017-04-12T10:29:22.677Z,98.25
2017-04-12T10:30:22.661Z,98.82
2017-04-12T10:31:22.647Z,98.39
2017-04-12T10:32:22.631Z,97.87
2017-04-12T10:33:22.616Z,98.11
2017-04-12T10:34:22.604Z,98.11
2017-04-12T10:35:22.588Z,97.87
2017-04-12T10:36:22.573Z,98.68
2017-04-12T10:37:22.273Z,98.77
2017-04-12T10:38:22.544Z,98.49
2017-04-12T10:39:22.233Z,98.58
2017-04-12T10:40:22.218Z,98.25
2017-04-12T10:41:22.506Z,98.3
2017-04-12T10:42:22.492Z,98.77
2017-04-12T10:43:22.476Z,98.87
2017-04-12T10:44:22.160Z,98.58
2017-04-12T10:45:22.449Z,98.21
2017-04-12T10:46:22.438Z,97.97
2017-04-12T10:47:22.421Z,98.02
2017-04-12T10:48:22.408Z,97.59
2017-04-12T10:49:22.400Z,97.64
2017-04-12T10:50:22.384Z,97.68
2017-04-12T10:51:22.369Z,97.73
2017-04-12T10:52:22.361Z,97.35
2017-04-12T10:53:22.339Z,97.59
2017-04-12T10:54:22.331Z,97.78
2017-04-12T10:55:22.317Z,98.16
2017-04-12T10:56:22.303Z,97.92
2017-04-12T10:57:22.288Z,97.64
2017-04-12T10:58:22.277Z,97.73
2017-04-12T10:59:21.960Z,97.64
2017-04-12T11:00:22.249Z,97.97
2017-04-12T11:01:22.235Z,97.59
2017-04-12T11:02:22.223Z,98.44
2017-04-12T11:03:22.210Z,98.16
2017-04-12T11:04:21.897Z,98.21
2017-04-12T11:05:22.189Z,98.21
2017-04-12T11:06:22.172Z,98.12
2017-04-12T11:07:21.859Z,97.12
2017-04-12T11:08:22.149Z,97.22
2017-04-12T11:09:21.833Z,96.45
2017-04-12T11:10:22.123Z,96.59
2017-04-12T11:11:21.810Z,96.69
2017-04-12T11:12:22.103Z,96.5
2017-04-12T11:13:22.088Z,96.97
2017-04-12T11:14:22.074Z,97.07
2017-04-12T11:15:22.066Z,96.55
2017-04-12T11:16:22.056Z,96.41
2017-04-12T11:17:22.037Z,96.64
2017-04-12T11:18:22.027Z,97.35
2017-04-12T11:19:21.719Z,97.45
2017-04-12T11:20:22.026Z,97.02
2017-04-12T11:21:21.987Z,97.83
2017-04-12T11:22:21.979Z,97.78
2017-04-12T11:23:21.966Z,98.02
2017-04-12T11:24:21.951Z,97.36
2017-04-12T11:25:21.940Z,96.83
2017-04-12T11:26:21.926Z,96.5
2017-04-12T11:27:21.918Z,96.78
2017-04-12T11:28:21.903Z,96.41
2017-04-12T11:29:21.890Z,95.88
2017-04-12T11:30:21.878Z,95.74
2017-04-12T11:31:21.870Z,95.69
2017-04-12T11:32:21.858Z,96.64
2017-04-12T11:33:21.541Z,97.16
2017-04-12T11:34:21.836Z,97.02
2017-04-12T11:35:21.821Z,97.02
2017-04-12T11:36:21.806Z,97.31
2017-04-12T11:37:21.798Z,96.73
2017-04-12T11:38:21.787Z,96.45
2017-04-12T11:39:21.767Z,96.12
2017-04-12T11:40:21.453Z,96.41
2017-04-12T11:41:21.745Z,96.69
2017-04-12T11:42:21.736Z,96.36
2017-04-12T11:43:21.721Z,97.21
2017-04-12T11:44:21.709Z,97.21
2017-04-12T11:45:21.697Z,97.12
2017-04-12T11:46:21.684Z,97.22
2017-04-12T11:47:21.370Z,96.88
2017-04-12T11:48:21.657Z,96.45
2017-04-12T11:49:21.647Z,96.78
2017-04-12T11:50:21.637Z,96.36
2017-04-12T11:51:21.625Z,96.73
2017-04-12T11:52:21.611Z,97.31
2017-04-12T11:53:21.599Z,97.64
2017-04-12T11:54:21.587Z,97.36
2017-04-12T11:55:21.578Z,97.27
2017-04-12T11:56:21.562Z,97.45
2017-04-12T11:57:21.553Z,97.03
2017-04-12T11:58:21.540Z,96.69
2017-04-12T11:59:21.532Z,96.08
2017-04-12T12:00:21.519Z,95.84
2017-04-12T12:01:21.510Z,95.6
2017-04-12T12:02:21.495Z,95.88
2017-04-12T12:03:21.185Z,96.55
2017-04-12T12:04:21.473Z,96.78
2017-04-12T12:05:21.162Z,96.64
2017-04-12T12:06:21.452Z,96.26
2017-04-12T12:07:21.443Z,96.08
2017-04-12T12:08:21.432Z,95.93
2017-04-12T12:09:21.419Z,95.74
2017-04-12T12:10:21.414Z,96.17
2017-04-12T12:11:21.398Z,95.88
2017-04-12T12:12:21.385Z,96.36
2017-04-12T12:13:21.374Z,96.55
2017-04-12T12:14:21.058Z,96.98
2017-04-12T12:15:21.354Z,96.55
2017-04-12T12:16:21.337Z,96.26
2017-04-12T12:17:21.328Z,96.69
2017-04-12T12:18:21.017Z,96.74
2017-04-12T12:19:21.305Z,96.93
2017-04-12T12:20:21.296Z,96.89
2017-04-12T12:21:21.284Z,96.31
2017-04-12T12:22:21.277Z,96.22
2017-04-12T12:23:21.264Z,95.89
2017-04-12T12:24:20.952Z,95.56
2017-04-12T12:25:21.243Z,95.22
2017-04-12T12:26:21.236Z,95.17
2017-04-12T12:27:21.222Z,95.22
2017-04-12T12:28:21.210Z,95.46
2017-04-12T12:29:21.200Z,95.7
2017-04-12T12:30:21.191Z,96.31
2017-04-12T12:31:21.178Z,96.22
2017-04-12T12:32:21.168Z,95.84
2017-04-12T12:33:21.160Z,95.65
2017-04-12T12:34:21.146Z,95.79
2017-04-12T12:35:21.136Z,95.94
2017-04-12T12:36:21.126Z,95.7
2017-04-12T12:37:21.121Z,95.65
2017-04-12T12:38:21.113Z,95.51
2017-04-12T12:39:21.126Z,94.89
2017-04-12T12:40:21.088Z,94.42
2017-04-12T12:41:21.082Z,94.51
2017-04-12T12:42:21.065Z,94.79
2017-04-12T12:43:21.060Z,95.08
2017-04-12T12:44:21.045Z,95.32
2017-04-12T12:45:20.735Z,95.22
2017-04-12T12:46:21.023Z,94.6
2017-04-12T12:47:21.017Z,94.46
2017-04-12T12:48:21.005Z,94.13
2017-04-12T12:49:20.995Z,94.42
2017-04-12T12:50:20.981Z,94.18
2017-04-12T12:51:20.978Z,94.27
2017-04-12T12:52:20.961Z,94.18
2017-04-12T12:53:20.952Z,94.23